Time;durP1;ratioP1;P1;durP2;ratioP2;P2;SDS_P1;SDS_P2;PMS_P1;PMS_P2;Temp;Humidity;BMP_temperature;BMP_pressure;BME280_temperature;BME280_humidity;BME280_pressure;Samples;Min_cycle;Max_cycle;Signal;HPM_P1;HPM_P2
2023/10/21 00:02:09;;;;;;;4.73;2.10;;;15.30;83.20;;;;;;5091846;28;20494;-79
2023/10/21 00:04:37;;;;;;;4.97;2.30;;;15.30;83.40;;;;;;5080428;28;21013;-78
2023/10/21 00:07:06;;;;;;;4.40;2.20;;;15.30;83.30;;;;;;5098145;28;20473;-78
2023/10/21 00:09:34;;;;;;;5.50;2.17;;;15.40;83.20;;;;;;5073923;28;20533;-77
2023/10/21 00:12:02;;;;;;;4.93;1.87;;;15.40;83.10;;;;;;5091066;28;20545;-79
2023/10/21 00:14:31;;;;;;;6.23;2.50;;;15.40;83.10;;;;;;5096003;28;20463;-77
2023/10/21 00:16:58;;;;;;;4.70;2.20;;;15.40;83.00;;;;;;5085461;28;20556;-77
2023/10/21 00:19:28;;;;;;;5.40;1.90;;;15.40;82.90;;;;;;5067499;28;20483;-77
2023/10/21 00:21:56;;;;;;;4.80;1.70;;;15.30;82.90;;;;;;5076908;28;20467;-77
2023/10/21 00:24:25;;;;;;;6.60;2.10;;;15.20;83.00;;;;;;5090387;28;20464;-77
2023/10/21 00:26:53;;;;;;;4.40;1.93;;;15.20;83.00;;;;;;5092093;28;20478;-76
2023/10/21 00:29:21;;;;;;;4.40;1.90;;;15.20;83.00;;;;;;5078965;28;20456;-77
2023/10/21 00:31:49;;;;;;;4.90;1.97;;;15.20;83.00;;;;;;5080676;28;20473;-78
2023/10/21 00:34:18;;;;;;;4.63;1.97;;;15.20;83.00;;;;;;5094870;28;20470;-78
2023/10/21 00:36:47;;;;;;;6.53;1.80;;;15.20;82.90;;;;;;5090431;28;20453;-78
2023/10/21 00:39:16;;;;;;;6.10;1.97;;;15.30;82.90;;;;;;5095267;28;20484;-78
2023/10/21 00:41:44;;;;;;;3.80;1.50;;;15.30;82.80;;;;;;5071622;28;20548;-76
2023/10/21 00:44:12;;;;;;;4.60;1.83;;;15.30;82.70;;;;;;5076258;28;21277;-77
2023/10/21 00:46:42;;;;;;;6.23;1.70;;;15.30;82.70;;;;;;5091535;28;20463;-77
2023/10/21 00:49:10;;;;;;;5.23;1.63;;;15.30;82.60;;;;;;5094176;28;20459;-77
2023/10/21 00:51:39;;;;;;;5.40;1.47;;;15.30;82.60;;;;;;5094617;28;20464;-78
2023/10/21 00:54:12;;;;;;;4.40;1.27;;;15.30;82.60;;;;;;5077673;28;20547;-77
2023/10/21 00:56:41;;;;;;;4.37;1.40;;;15.30;82.60;;;;;;5070003;28;20543;-77
2023/10/21 00:59:09;;;;;;;3.53;1.10;;;15.40;82.50;;;;;;5077547;28;20566;-77
2023/10/21 01:01:37;;;;;;;3.57;1.20;;;15.40;82.40;;;;;;5085500;28;20484;-79
2023/10/21 01:04:06;;;;;;;3.60;1.00;;;15.40;82.30;;;;;;5069518;28;21402;-79
2023/10/21 01:06:34;;;;;;;3.80;0.90;;;15.40;82.30;;;;;;5087615;28;20464;-79
2023/10/21 01:09:02;;;;;;;3.70;1.10;;;15.40;82.20;;;;;;5088237;28;20493;-77
2023/10/21 01:11:32;;;;;;;5.30;1.20;;;15.40;82.10;;;;;;5071028;28;20990;-79
2023/10/21 01:14:03;;;;;;;3.53;1.17;;;15.50;82.10;;;;;;5065662;28;20555;-77
2023/10/21 01:16:38;;;;;;;3.80;1.17;;;15.50;82.00;;;;;;5072853;28;20473;-76
2023/10/21 01:19:07;;;;;;;3.73;1.10;;;15.50;81.90;;;;;;5091932;28;20469;-77
2023/10/21 01:21:35;;;;;;;5.43;1.30;;;15.50;81.90;;;;;;5089087;28;20468;-79
2023/10/21 01:24:06;;;;;;;3.70;1.10;;;15.60;81.80;;;;;;5064443;28;20467;-79
2023/10/21 01:26:35;;;;;;;3.70;1.20;;;15.60;81.70;;;;;;5090238;28;20802;-79
2023/10/21 01:29:09;;;;;;;3.73;0.83;;;15.70;81.60;;;;;;5088897;28;20466;-79
2023/10/21 01:31:37;;;;;;;3.47;0.93;;;15.70;81.40;;;;;;5086887;28;20541;-78
2023/10/21 01:34:05;;;;;;;5.80;1.00;;;15.70;81.40;;;;;;5095612;28;20453;-77
2023/10/21 01:36:33;;;;;;;3.30;0.90;;;15.70;81.20;;;;;;5087239;28;20464;-78
2023/10/21 01:39:02;;;;;;;3.73;1.07;;;15.70;81.10;;;;;;5084618;28;20825;-79
2023/10/21 01:41:31;;;;;;;3.80;0.90;;;15.80;81.10;;;;;;5088048;28;21056;-79
2023/10/21 01:43:59;;;;;;;3.67;0.97;;;15.80;81.00;;;;;;5069721;28;20806;-78
2023/10/21 01:46:27;;;;;;;3.30;0.80;;;15.80;81.00;;;;;;5072451;28;20452;-77
2023/10/21 01:48:55;;;;;;;3.70;1.07;;;15.80;80.80;;;;;;5074451;28;20448;-78
2023/10/21 01:51:23;;;;;;;3.30;0.90;;;15.70;80.80;;;;;;5080236;28;20560;-77
2023/10/21 01:53:51;;;;;;;4.17;1.07;;;15.80;80.90;;;;;;5089544;28;20464;-79
2023/10/21 01:56:19;;;;;;;3.60;0.70;;;15.80;80.80;;;;;;5090765;28;20457;-77
2023/10/21 01:58:49;;;;;;;8.40;1.10;;;15.80;80.70;;;;;;5076569;28;20548;-77
2023/10/21 02:01:17;;;;;;;3.97;0.90;;;15.80;80.60;;;;;;5075359;28;20569;-76
2023/10/21 02:03:45;;;;;;;3.70;0.90;;;15.80;80.60;;;;;;5070290;28;21076;-78
2023/10/21 02:06:13;;;;;;;3.87;0.90;;;15.80;80.60;;;;;;5071964;28;20469;-79
2023/10/21 02:08:41;;;;;;;4.53;0.90;;;15.80;80.50;;;;;;5092864;28;20916;-77
2023/10/21 02:11:09;;;;;;;3.93;1.03;;;15.80;80.50;;;;;;5087530;28;20453;-76
2023/10/21 02:13:37;;;;;;;4.20;0.90;;;15.80;80.60;;;;;;5080430;28;20456;-79
2023/10/21 02:16:11;;;;;;;3.27;0.77;;;15.80;80.50;;;;;;5074380;28;20543;-78
2023/10/21 02:18:39;;;;;;;3.63;0.60;;;15.80;80.50;;;;;;5078031;28;20978;-79
2023/10/21 02:21:07;;;;;;;3.60;0.77;;;15.80;80.60;;;;;;5067145;28;20986;-76
2023/10/21 02:23:36;;;;;;;3.93;0.70;;;15.80;80.50;;;;;;5068481;28;20460;-77
2023/10/21 02:26:05;;;;;;;4.20;0.50;;;15.70;80.60;;;;;;5090934;28;20501;-77
2023/10/21 02:28:34;;;;;;;3.17;0.63;;;15.80;80.50;;;;;;5093443;28;20548;-78
2023/10/21 02:31:03;;;;;;;3.90;0.60;;;15.80;80.60;;;;;;5084587;28;20521;-78
2023/10/21 02:33:33;;;;;;;3.27;0.53;;;15.80;80.50;;;;;;5068575;28;21059;-78
2023/10/21 02:36:01;;;;;;;3.20;0.60;;;15.90;80.50;;;;;;5073793;28;20946;-79
2023/10/21 02:38:29;;;;;;;3.20;0.50;;;15.90;80.30;;;;;;5094926;28;20500;-78
2023/10/21 02:41:05;;;;;;;3.50;0.60;;;15.90;80.30;;;;;;5079924;28;21345;-78
2023/10/21 02:43:33;;;;;;;3.20;0.50;;;16.00;80.20;;;;;;5070559;28;20459;-78
2023/10/21 02:46:12;;;;;;;3.10;0.60;;;16.00;80.10;;;;;;5094327;28;20464;-77
2023/10/21 02:48:43;;;;;;;3.70;0.70;;;16.00;80.00;;;;;;5097678;28;20463;-78
2023/10/21 02:51:12;;;;;;;3.20;0.70;;;15.90;80.00;;;;;;5097170;28;20448;-80
2023/10/21 02:53:41;;;;;;;4.07;0.50;;;16.00;80.00;;;;;;5070907;28;20459;-78
2023/10/21 02:56:09;;;;;;;3.07;0.57;;;16.00;79.90;;;;;;5086786;28;20463;-77
2023/10/21 02:58:37;;;;;;;3.33;0.40;;;16.00;79.90;;;;;;5091415;28;20459;-76
2023/10/21 03:01:13;;;;;;;3.00;0.40;;;16.00;79.80;;;;;;5093635;28;20491;-79
2023/10/21 03:03:43;;;;;;;4.33;0.60;;;16.10;79.70;;;;;;5082649;28;20555;-77
2023/10/21 03:06:12;;;;;;;2.90;0.50;;;16.10;79.70;;;;;;5095638;28;20918;-77
2023/10/21 03:08:41;;;;;;;3.50;0.40;;;16.10;79.50;;;;;;5091380;28;20464;-78
2023/10/21 03:11:10;;;;;;;6.67;0.50;;;16.10;79.50;;;;;;5076780;28;20451;-79
2023/10/21 03:13:39;;;;;;;3.20;0.37;;;16.20;79.50;;;;;;5095444;28;20464;-80
2023/10/21 03:16:08;;;;;;;2.90;0.50;;;16.10;79.50;;;;;;5080011;28;20456;-79
2023/10/21 03:18:37;;;;;;;3.10;0.50;;;16.20;79.50;;;;;;5067265;28;21187;-77
2023/10/21 03:21:07;;;;;;;2.90;0.40;;;16.20;79.50;;;;;;5092828;28;20514;-78
2023/10/21 03:23:36;;;;;;;3.17;0.40;;;16.20;79.50;;;;;;5089518;28;20460;-77
2023/10/21 03:26:05;;;;;;;3.30;0.40;;;16.20;79.50;;;;;;5097106;28;20445;-78
2023/10/21 03:28:35;;;;;;;3.57;0.57;;;16.20;79.50;;;;;;5079321;28;20461;-78
2023/10/21 03:31:04;;;;;;;2.90;0.40;;;16.20;79.50;;;;;;5073895;28;20983;-79
2023/10/21 03:33:34;;;;;;;3.20;0.50;;;16.20;79.50;;;;;;5092473;28;20463;-78
2023/10/21 03:36:04;;;;;;;2.97;0.40;;;16.20;79.50;;;;;;5095162;28;20476;-76
2023/10/21 03:38:34;;;;;;;3.20;0.50;;;16.20;79.50;;;;;;5064841;28;20457;-79
2023/10/21 03:41:06;;;;;;;3.23;0.50;;;16.20;79.70;;;;;;5074012;28;20569;-78
2023/10/21 03:43:34;;;;;;;3.00;0.50;;;16.20;79.70;;;;;;5095216;28;20457;-78
2023/10/21 03:46:14;;;;;;;8.87;0.50;;;16.20;79.80;;;;;;5079808;28;20489;-77
2023/10/21 03:48:42;;;;;;;3.90;0.50;;;16.10;79.90;;;;;;5083764;28;20575;-77
2023/10/21 03:51:12;;;;;;;3.60;0.50;;;16.10;79.90;;;;;;5093149;28;20506;-77
2023/10/21 03:53:43;;;;;;;4.00;0.40;;;16.10;80.00;;;;;;5096093;28;20476;-76
2023/10/21 03:56:11;;;;;;;3.00;0.50;;;16.00;80.10;;;;;;5091006;28;20464;-79
2023/10/21 03:58:40;;;;;;;2.80;0.40;;;16.00;80.10;;;;;;5096856;28;20467;-76
2023/10/21 04:01:09;;;;;;;2.90;0.50;;;16.00;80.10;;;;;;5099080;28;21079;-76
2023/10/21 04:03:37;;;;;;;6.80;0.50;;;16.00;80.20;;;;;;5083601;28;20540;-77
2023/10/21 04:06:08;;;;;;;3.17;0.50;;;16.00;80.20;;;;;;5102309;28;20456;-78
2023/10/21 04:08:37;;;;;;;5.23;0.60;;;15.90;80.30;;;;;;5069201;28;20845;-77
2023/10/21 04:11:06;;;;;;;3.40;0.50;;;15.90;80.30;;;;;;5092548;28;20467;-79
2023/10/21 04:13:34;;;;;;;3.67;0.57;;;15.90;80.40;;;;;;5094003;28;20457;-77
2023/10/21 04:16:03;;;;;;;2.80;0.40;;;15.90;80.30;;;;;;5085566;28;20465;-78
2023/10/21 04:18:32;;;;;;;2.90;0.50;;;15.90;80.30;;;;;;5098432;28;20465;-76
2023/10/21 04:21:01;;;;;;;3.33;0.50;;;15.90;80.40;;;;;;5077260;28;20476;-77
2023/10/21 04:23:29;;;;;;;3.00;0.50;;;15.90;80.40;;;;;;5089400;28;20469;-77
2023/10/21 04:25:58;;;;;;;2.70;0.40;;;15.90;80.30;;;;;;5077704;28;20813;-79
2023/10/21 04:28:28;;;;;;;4.30;0.70;;;15.90;80.30;;;;;;5089767;28;20472;-79
2023/10/21 04:30:55;;;;;;;5.93;0.80;;;15.90;80.30;;;;;;5090898;28;20486;-77
2023/10/21 04:33:25;;;;;;;3.30;0.50;;;15.90;80.30;;;;;;5094000;28;20529;-77
2023/10/21 04:35:56;;;;;;;3.40;0.50;;;15.90;80.30;;;;;;5093693;28;20506;-76
2023/10/21 04:38:24;;;;;;;3.00;0.40;;;15.90;80.40;;;;;;5096341;28;20504;-78
2023/10/21 04:40:53;;;;;;;3.00;0.50;;;15.90;80.40;;;;;;5087053;28;20479;-81
2023/10/21 04:43:21;;;;;;;3.20;0.60;;;15.90;80.50;;;;;;5090076;28;20946;-80
2023/10/21 04:45:50;;;;;;;3.60;0.60;;;15.90;80.50;;;;;;5090504;28;20501;-80
2023/10/21 04:48:18;;;;;;;5.60;0.90;;;15.90;80.50;;;;;;5091007;28;20464;-77
2023/10/21 04:50:47;;;;;;;3.63;0.70;;;16.00;80.50;;;;;;5097262;28;20460;-77
2023/10/21 04:53:15;;;;;;;4.17;0.67;;;16.00;80.50;;;;;;5088022;28;21039;-76
2023/10/21 04:55:49;;;;;;;3.30;0.50;;;16.00;80.40;;;;;;5092052;28;20467;-78
2023/10/21 04:58:18;;;;;;;3.10;0.50;;;16.00;80.40;;;;;;5088494;28;20469;-79
2023/10/21 05:00:51;;;;;;;3.10;0.57;;;16.00;80.30;;;;;;5091074;28;20567;-77
2023/10/21 05:03:19;;;;;;;3.60;0.80;;;16.10;80.30;;;;;;5092240;28;20476;-79
2023/10/21 05:05:48;;;;;;;3.87;0.60;;;16.00;80.30;;;;;;5088043;28;21021;-79
2023/10/21 05:08:17;;;;;;;4.40;0.70;;;16.10;80.20;;;;;;5084959;28;20468;-76
2023/10/21 05:10:45;;;;;;;4.67;0.60;;;16.10;80.20;;;;;;5095753;28;20551;-77
2023/10/21 05:13:13;;;;;;;3.60;0.60;;;16.00;80.20;;;;;;5095068;28;20850;-77
2023/10/21 05:15:41;;;;;;;3.10;0.60;;;16.00;80.20;;;;;;5092652;28;20548;-79
2023/10/21 05:18:11;;;;;;;3.60;0.70;;;16.00;80.10;;;;;;5093195;28;20469;-79
2023/10/21 05:20:40;;;;;;;5.67;0.50;;;16.00;80.10;;;;;;5090522;28;20576;-80
2023/10/21 05:23:08;;;;;;;6.90;0.67;;;16.00;80.00;;;;;;5088199;28;20460;-77
2023/10/21 05:25:36;;;;;;;4.80;0.87;;;16.00;79.90;;;;;;5089962;28;20468;-80
2023/10/21 05:28:05;;;;;;;3.30;0.70;;;16.00;79.90;;;;;;5091209;28;20489;-79
2023/10/21 05:30:33;;;;;;;3.83;0.60;;;16.00;79.90;;;;;;5089092;28;20487;-79
2023/10/21 05:33:01;;;;;;;3.20;0.60;;;16.00;79.80;;;;;;5092744;28;20469;-78
2023/10/21 05:35:32;;;;;;;3.80;0.70;;;16.00;79.80;;;;;;5082841;28;20891;-78
2023/10/21 05:37:59;;;;;;;3.20;0.47;;;16.00;79.80;;;;;;5074884;28;20460;-78
2023/10/21 05:40:27;;;;;;;3.30;0.40;;;16.00;79.70;;;;;;5072601;28;20868;-76
2023/10/21 05:42:56;;;;;;;3.53;0.50;;;16.00;79.70;;;;;;5067680;28;20572;-78
2023/10/21 05:45:24;;;;;;;5.50;0.70;;;15.90;79.70;;;;;;5089469;28;21177;-79
2023/10/21 05:47:53;;;;;;;3.97;0.50;;;16.00;79.70;;;;;;5067186;28;20486;-76
2023/10/21 05:50:23;;;;;;;5.63;0.60;;;16.00;79.50;;;;;;5072060;28;20523;-78
2023/10/21 05:52:53;;;;;;;4.27;0.73;;;16.00;79.60;;;;;;5071956;28;20480;-79
2023/10/21 05:55:21;;;;;;;2.87;0.40;;;16.00;79.50;;;;;;5087369;28;20465;-79
2023/10/21 05:57:49;;;;;;;3.30;0.60;;;16.00;79.40;;;;;;5093891;28;21011;-78
2023/10/21 06:00:18;;;;;;;3.90;0.60;;;16.00;79.40;;;;;;5074015;28;20535;-77
2023/10/21 06:02:46;;;;;;;5.27;0.60;;;16.00;79.50;;;;;;5085464;28;20480;-79
2023/10/21 06:05:15;;;;;;;3.73;0.60;;;16.00;79.50;;;;;;5070954;28;20868;-79
2023/10/21 06:07:43;;;;;;;3.60;0.83;;;16.00;79.50;;;;;;5085945;28;20452;-79
2023/10/21 06:10:13;;;;;;;5.50;1.10;;;16.00;79.40;;;;;;5100241;28;20522;-80
2023/10/21 06:12:43;;;;;;;3.60;0.67;;;16.00;79.40;;;;;;5096793;28;20464;-78
2023/10/21 06:15:14;;;;;;;4.07;0.60;;;15.90;79.50;;;;;;5090343;28;20457;-79
2023/10/21 06:17:42;;;;;;;3.53;0.70;;;15.90;79.50;;;;;;5073027;28;20467;-78
2023/10/21 06:20:11;;;;;;;5.60;0.70;;;15.90;79.60;;;;;;5098412;28;20594;-79
2023/10/21 06:22:39;;;;;;;4.30;0.70;;;15.90;79.70;;;;;;5092495;28;21058;-78
2023/10/21 06:25:08;;;;;;;3.90;0.70;;;15.90;79.80;;;;;;5097629;28;20958;-76
2023/10/21 06:27:38;;;;;;;4.50;0.67;;;15.90;79.80;;;;;;5095200;28;20552;-80
2023/10/21 06:30:07;;;;;;;3.93;0.80;;;15.90;79.80;;;;;;5096942;28;20721;-78
2023/10/21 06:32:35;;;;;;;5.00;0.80;;;15.90;79.80;;;;;;5095186;28;20441;-77
2023/10/21 06:35:03;;;;;;;6.43;0.70;;;15.80;79.90;;;;;;5098066;28;20456;-77
2023/10/21 06:37:31;;;;;;;5.00;0.67;;;15.80;79.90;;;;;;5095038;28;20550;-77
2023/10/21 06:40:00;;;;;;;3.00;0.50;;;15.80;79.90;;;;;;5097999;28;20607;-78
2023/10/21 06:42:28;;;;;;;5.00;0.60;;;15.80;79.90;;;;;;5101636;28;20544;-79
2023/10/21 06:44:58;;;;;;;3.03;0.60;;;15.80;79.90;;;;;;5104780;28;20584;-78
2023/10/21 06:47:26;;;;;;;4.10;0.80;;;15.90;79.90;;;;;;5096470;28;21539;-79
2023/10/21 06:49:54;;;;;;;5.07;0.57;;;15.80;79.90;;;;;;5096909;28;21016;-78
2023/10/21 06:52:22;;;;;;;4.10;0.80;;;15.80;80.00;;;;;;5082975;28;20460;-79
2023/10/21 06:54:51;;;;;;;3.93;0.60;;;15.80;80.00;;;;;;5083049;28;20506;-80
2023/10/21 06:57:21;;;;;;;4.30;0.60;;;15.90;80.00;;;;;;5083176;28;20539;-77
2023/10/21 06:59:49;;;;;;;4.70;0.90;;;15.80;80.10;;;;;;5092908;28;20467;-77
2023/10/21 07:02:19;;;;;;;3.57;0.70;;;15.90;80.10;;;;;;5071298;28;20538;-78
2023/10/21 07:04:47;;;;;;;3.50;0.60;;;15.80;80.20;;;;;;5098000;28;20453;-77
2023/10/21 07:07:15;;;;;;;3.20;0.50;;;15.80;80.20;;;;;;5095875;28;20642;-78
2023/10/21 07:09:44;;;;;;;3.13;0.50;;;15.90;80.30;;;;;;5098923;28;20522;-76
2023/10/21 07:12:12;;;;;;;4.10;1.00;;;15.90;80.30;;;;;;5085495;28;20452;-76
2023/10/21 07:14:40;;;;;;;4.63;0.70;;;15.90;80.30;;;;;;5098540;28;20472;-80
2023/10/21 07:17:09;;;;;;;5.50;0.73;;;15.90;80.30;;;;;;5079927;28;20462;-78
2023/10/21 07:19:39;;;;;;;4.53;0.60;;;15.90;80.30;;;;;;5099264;28;20937;-80
2023/10/21 07:22:07;;;;;;;3.27;0.80;;;15.90;80.40;;;;;;5096583;28;21059;-80
2023/10/21 07:24:35;;;;;;;3.40;0.70;;;16.00;80.40;;;;;;5094252;28;20456;-79
2023/10/21 07:27:05;;;;;;;5.43;0.80;;;16.00;80.40;;;;;;5074690;28;20459;-80
2023/10/21 07:29:33;;;;;;;3.10;0.73;;;16.00;80.50;;;;;;5090451;28;20555;-84
2023/10/21 07:32:12;;;;;;;3.80;0.77;;;16.00;80.60;;;;;;5076393;28;20561;-85
2023/10/21 07:34:42;;;;;;;3.00;0.57;;;16.10;80.80;;;;;;5081324;28;20457;-88
2023/10/21 07:37:10;;;;;;;4.55;0.80;;;16.10;81.00;;;;;;5076797;28;20441;-87
2023/10/21 07:39:38;;;;;;;4.22;0.60;;;16.40;81.00;;;;;;5074802;28;20440;-85
2023/10/21 07:42:06;;;;;;;4.80;0.90;;;16.50;80.80;;;;;;5096935;28;20243;-86
2023/10/21 07:44:34;;;;;;;3.17;0.50;;;16.40;80.80;;;;;;5093074;28;20453;-84
2023/10/21 07:47:03;;;;;;;4.93;0.67;;;16.40;80.70;;;;;;5072916;28;21014;-83
2023/10/21 07:49:32;;;;;;;5.67;0.60;;;16.40;80.70;;;;;;5099663;28;20487;-84
2023/10/21 07:52:01;;;;;;;3.50;0.60;;;16.40;80.70;;;;;;5094320;28;20463;-83
2023/10/21 07:54:29;;;;;;;3.10;0.43;;;16.50;80.70;;;;;;5093773;28;20444;-86
2023/10/21 07:56:57;;;;;;;4.40;0.70;;;16.50;80.80;;;;;;5098537;28;20457;-83
2023/10/21 07:59:27;;;;;;;3.57;0.67;;;16.50;80.70;;;;;;5084395;28;20547;-86
2023/10/21 08:02:00;;;;;;;5.90;0.70;;;16.50;80.60;;;;;;5097393;28;20472;-84
2023/10/21 08:04:29;;;;;;;4.70;0.50;;;16.50;80.40;;;;;;5073061;28;20456;-84
2023/10/21 08:06:57;;;;;;;4.17;0.63;;;16.50;80.10;;;;;;5075729;28;21001;-83
2023/10/21 08:09:27;;;;;;;7.00;0.60;;;16.50;80.00;;;;;;5079204;28;20462;-85
2023/10/21 08:11:55;;;;;;;6.83;1.27;;;16.50;80.00;;;;;;5077212;28;21059;-86
2023/10/21 08:14:23;;;;;;;5.23;1.13;;;16.50;79.90;;;;;;5091344;28;20468;-84
2023/10/21 08:16:52;;;;;;;4.30;1.20;;;16.50;79.80;;;;;;5095862;28;20490;-79
2023/10/21 08:19:22;;;;;;;4.87;1.40;;;16.50;79.70;;;;;;5097963;28;20933;-77
2023/10/21 08:21:50;;;;;;;6.80;1.23;;;16.50;79.70;;;;;;5091270;28;20462;-78
2023/10/21 08:24:18;;;;;;;5.20;0.90;;;16.50;79.60;;;;;;5097374;28;20443;-78
2023/10/21 08:26:47;;;;;;;5.10;0.70;;;16.50;79.40;;;;;;5097217;28;20543;-79
2023/10/21 08:29:16;;;;;;;3.80;0.60;;;16.50;79.30;;;;;;5092374;28;20453;-80
2023/10/21 08:31:44;;;;;;;3.53;0.70;;;16.60;79.10;;;;;;5093566;28;20480;-78
2023/10/21 08:34:13;;;;;;;3.47;0.70;;;16.60;79.00;;;;;;5079786;28;20479;-79
2023/10/21 08:36:42;;;;;;;4.03;0.43;;;16.60;79.00;;;;;;5087790;28;20444;-78
2023/10/21 08:39:11;;;;;;;3.60;0.50;;;16.60;78.90;;;;;;5089479;28;20448;-79
2023/10/21 08:41:40;;;;;;;2.90;0.40;;;16.70;78.80;;;;;;5091109;28;20448;-78
2023/10/21 08:44:09;;;;;;;3.10;0.47;;;16.70;78.60;;;;;;5094622;28;20487;-79
2023/10/21 08:46:37;;;;;;;6.00;1.10;;;16.70;78.40;;;;;;5093183;28;20458;-78
2023/10/21 08:49:07;;;;;;;4.77;0.77;;;16.80;78.20;;;;;;5095759;28;20482;-78
2023/10/21 08:51:36;;;;;;;3.20;0.50;;;16.80;78.10;;;;;;5093334;28;20455;-78
2023/10/21 08:54:05;;;;;;;3.60;0.57;;;16.80;78.10;;;;;;5078714;28;20502;-79
2023/10/21 08:56:35;;;;;;;5.87;0.40;;;16.90;78.10;;;;;;5076940;28;20458;-78
2023/10/21 08:59:03;;;;;;;4.27;0.50;;;16.90;77.90;;;;;;5076447;28;20461;-78
2023/10/21 09:01:32;;;;;;;4.87;0.40;;;16.90;77.90;;;;;;5099931;28;20834;-81
2023/10/21 09:04:01;;;;;;;3.13;0.50;;;17.00;77.70;;;;;;5097065;28;21035;-79
2023/10/21 09:06:29;;;;;;;3.50;0.43;;;17.00;77.60;;;;;;5092299;28;20453;-79
2023/10/21 09:08:57;;;;;;;4.17;0.57;;;17.00;77.60;;;;;;5095672;28;20505;-77
2023/10/21 09:11:27;;;;;;;4.33;0.60;;;17.10;77.50;;;;;;5092044;28;20514;-80
2023/10/21 09:13:59;;;;;;;3.27;0.70;;;17.10;77.50;;;;;;5094534;28;20480;-78
2023/10/21 09:16:29;;;;;;;3.50;0.50;;;17.10;77.50;;;;;;5096813;28;20527;-79
2023/10/21 09:19:03;;;;;;;3.50;0.50;;;17.10;77.30;;;;;;5090016;28;20955;-77
2023/10/21 09:21:37;;;;;;;4.13;0.50;;;17.10;77.10;;;;;;5092685;28;20518;-80
2023/10/21 09:24:06;;;;;;;3.10;0.60;;;17.10;76.90;;;;;;5072816;28;20481;-79
2023/10/21 09:26:35;;;;;;;3.40;0.80;;;17.10;76.80;;;;;;5078928;28;20456;-79
2023/10/21 09:29:08;;;;;;;4.50;0.60;;;17.10;76.70;;;;;;5096176;28;20509;-78
2023/10/21 09:31:47;;;;;;;3.53;0.60;;;17.10;76.50;;;;;;5093806;28;20457;-81
2023/10/21 09:34:27;;;;;;;3.20;0.50;;;17.10;76.60;;;;;;5092852;28;20456;-80
2023/10/21 09:36:57;;;;;;;3.97;0.40;;;17.10;76.10;;;;;;5096943;28;20831;-80
2023/10/21 09:39:27;;;;;;;4.43;0.67;;;17.10;76.20;;;;;;5089837;28;20539;-77
2023/10/21 09:41:55;;;;;;;3.60;0.50;;;17.10;76.20;;;;;;5092761;28;20495;-80
2023/10/21 09:44:24;;;;;;;3.83;0.47;;;17.10;76.10;;;;;;5092345;28;20571;-79
2023/10/21 09:46:55;;;;;;;3.50;0.53;;;17.00;76.00;;;;;;5096229;28;20453;-80
2023/10/21 09:49:27;;;;;;;3.60;0.50;;;17.00;75.90;;;;;;5096455;28;20804;-79
2023/10/21 09:52:02;;;;;;;4.50;0.50;;;17.00;75.90;;;;;;5088436;28;20468;-79
2023/10/21 09:54:34;;;;;;;5.93;0.77;;;17.00;75.90;;;;;;5089963;28;20456;-79
2023/10/21 09:57:06;;;;;;;3.07;0.40;;;17.00;75.90;;;;;;5076441;28;20461;-78
2023/10/21 09:59:37;;;;;;;3.57;0.40;;;17.00;75.90;;;;;;5072939;28;20453;-79
2023/10/21 10:02:06;;;;;;;3.60;0.60;;;17.00;75.80;;;;;;5085396;28;20476;-78
2023/10/21 10:04:36;;;;;;;4.10;0.87;;;17.00;75.80;;;;;;5067557;28;20484;-77
2023/10/21 10:07:07;;;;;;;3.40;0.40;;;17.00;75.80;;;;;;5087529;28;20461;-77
2023/10/21 10:09:45;;;;;;;3.20;0.63;;;17.00;75.70;;;;;;5076898;28;20517;-79
2023/10/21 10:12:20;;;;;;;3.30;0.50;;;17.00;75.60;;;;;;5093778;28;20444;-78
2023/10/21 10:14:49;;;;;;;2.97;0.40;;;17.00;75.50;;;;;;5089829;28;20444;-81
2023/10/21 10:17:48;;;;;;;4.33;0.40;;;17.00;75.20;;;;;;5072415;28;20475;-81
2023/10/21 10:20:24;;;;;;;3.00;0.40;;;17.00;75.00;;;;;;5092048;28;20460;-81
2023/10/21 10:23:04;;;;;;;3.50;0.50;;;17.00;74.80;;;;;;5071782;28;20559;-79
2023/10/21 10:25:34;;;;;;;4.60;0.70;;;17.00;75.00;;;;;;5088121;28;20535;-80
2023/10/21 10:28:07;;;;;;;4.30;0.50;;;17.00;75.00;;;;;;5091249;28;20486;-80
2023/10/21 10:30:36;;;;;;;3.23;0.50;;;17.10;75.00;;;;;;5088287;28;20464;-80
2023/10/21 10:33:07;;;;;;;5.20;0.60;;;17.10;74.90;;;;;;5087599;28;20544;-81
2023/10/21 10:35:40;;;;;;;4.07;0.60;;;17.10;74.90;;;;;;5090879;28;20826;-78
2023/10/21 10:38:24;;;;;;;4.70;0.63;;;17.20;74.70;;;;;;5086101;28;20473;-80
2023/10/21 10:40:59;;;;;;;3.67;0.60;;;17.20;74.70;;;;;;5089702;28;20484;-82
2023/10/21 10:43:29;;;;;;;6.70;0.97;;;17.20;74.50;;;;;;5073272;28;20479;-80
2023/10/21 10:45:57;;;;;;;3.73;0.50;;;17.20;74.40;;;;;;5088264;28;20973;-78
2023/10/21 10:48:31;;;;;;;5.57;0.80;;;17.20;74.20;;;;;;5076123;28;20464;-80
2023/10/21 10:51:06;;;;;;;3.73;0.50;;;17.20;74.10;;;;;;5069026;28;21042;-78
2023/10/21 10:53:36;;;;;;;3.80;0.47;;;17.20;73.70;;;;;;5091505;28;20472;-79
2023/10/21 10:56:09;;;;;;;3.40;0.60;;;17.20;73.30;;;;;;5065291;28;20476;-79
2023/10/21 10:58:38;;;;;;;4.50;0.73;;;17.20;73.30;;;;;;5094319;28;20479;-79
2023/10/21 11:01:07;;;;;;;3.50;0.70;;;17.20;73.00;;;;;;5091051;28;20460;-79
2023/10/21 11:03:36;;;;;;;5.63;0.70;;;17.20;72.70;;;;;;5078716;28;20476;-80
2023/10/21 11:06:06;;;;;;;3.53;0.60;;;17.10;72.70;;;;;;5088028;28;20473;-79
2023/10/21 11:08:38;;;;;;;4.00;0.67;;;17.20;72.70;;;;;;5085049;28;20464;-81
2023/10/21 11:11:10;;;;;;;3.60;0.60;;;17.20;72.80;;;;;;5090642;28;20460;-78
2023/10/21 11:13:39;;;;;;;3.57;0.73;;;17.20;72.90;;;;;;5093175;28;20547;-80
2023/10/21 11:16:07;;;;;;;5.17;0.73;;;17.20;72.60;;;;;;5099706;28;20456;-81
2023/10/21 11:18:36;;;;;;;4.67;0.53;;;17.30;72.40;;;;;;5093863;28;20526;-80
2023/10/21 11:21:07;;;;;;;7.90;0.80;;;17.30;72.30;;;;;;5095681;28;20460;-80
2023/10/21 11:23:36;;;;;;;4.60;1.07;;;17.30;72.20;;;;;;5093950;28;20460;-78
2023/10/21 11:26:07;;;;;;;3.50;0.60;;;17.40;72.10;;;;;;5094476;28;20480;-80
2023/10/21 11:28:38;;;;;;;4.50;0.50;;;17.40;71.60;;;;;;5079965;28;20464;-79
2023/10/21 11:31:08;;;;;;;3.20;0.50;;;17.40;71.50;;;;;;5091975;28;20584;-79
2023/10/21 11:33:36;;;;;;;4.30;1.00;;;17.40;71.30;;;;;;5077454;28;20487;-79
2023/10/21 11:36:13;;;;;;;4.00;0.67;;;17.40;71.30;;;;;;5092283;28;20479;-78
2023/10/21 11:38:44;;;;;;;3.77;0.40;;;17.40;71.20;;;;;;5094105;28;20488;-78
2023/10/21 11:41:12;;;;;;;4.73;0.90;;;17.40;71.30;;;;;;5096354;28;20466;-78
2023/10/21 11:43:44;;;;;;;5.53;0.80;;;17.40;71.30;;;;;;5079707;28;20488;-81
2023/10/21 11:46:13;;;;;;;4.67;0.77;;;17.40;70.60;;;;;;5079729;28;20970;-79
2023/10/21 11:48:41;;;;;;;4.90;0.80;;;17.50;70.40;;;;;;5099277;28;20518;-79
2023/10/21 11:51:09;;;;;;;5.57;0.87;;;17.50;70.60;;;;;;5086312;28;20471;-78
2023/10/21 11:53:39;;;;;;;3.53;0.67;;;17.50;70.40;;;;;;5088077;28;20471;-78
2023/10/21 12:15:51;;;;;;;4.70;0.70;;;17.60;70.10;;;;;;5093686;28;20547;-80
2023/10/21 12:27:31;;;;;;;5.33;1.33;;;17.70;69.80;;;;;;5053587;28;20477;-78
2023/10/21 12:32:52;;;;;;;5.60;1.10;;;17.70;69.70;;;;;;5094722;28;21048;-80
2023/10/21 12:41:15;;;;;;;5.50;1.20;;;17.80;69.70;;;;;;5089505;28;20468;-77
2023/10/21 12:43:48;;;;;;;4.60;0.80;;;17.80;69.50;;;;;;5094943;28;20460;-79
2023/10/21 12:46:18;;;;;;;4.63;0.90;;;17.90;69.60;;;;;;5067733;28;20569;-79
2023/10/21 12:48:51;;;;;;;12.93;1.10;;;17.90;69.60;;;;;;5091928;28;20478;-80
2023/10/21 12:51:21;;;;;;;5.37;1.27;;;17.90;69.50;;;;;;5094923;28;20521;-78
2023/10/21 12:53:49;;;;;;;5.50;0.90;;;18.00;69.20;;;;;;5096966;28;20470;-79
2023/10/21 12:56:27;;;;;;;5.40;0.90;;;18.00;69.20;;;;;;5096494;28;21015;-78
2023/10/21 12:58:58;;;;;;;9.97;1.20;;;18.00;69.10;;;;;;5089824;28;20475;-80
2023/10/21 13:01:26;;;;;;;6.20;0.73;;;18.00;69.00;;;;;;5091575;28;20562;-79
2023/10/21 13:03:57;;;;;;;3.73;0.87;;;17.90;68.90;;;;;;5098282;28;20457;-79
2023/10/21 13:06:25;;;;;;;3.80;0.60;;;17.90;68.70;;;;;;5089106;28;20989;-78
2023/10/21 13:08:55;;;;;;;4.10;0.80;;;17.90;68.50;;;;;;5088128;28;20544;-77
2023/10/21 13:11:23;;;;;;;5.40;1.00;;;17.90;68.60;;;;;;5090090;28;20464;-79
2023/10/21 13:13:56;;;;;;;3.73;0.80;;;17.90;68.70;;;;;;5077572;28;20552;-79
2023/10/21 13:16:26;;;;;;;4.40;0.80;;;17.90;68.70;;;;;;5094883;28;20456;-79
2023/10/21 13:18:54;;;;;;;4.33;0.60;;;17.90;68.80;;;;;;5094931;28;20495;-78
2023/10/21 13:21:23;;;;;;;6.83;1.00;;;17.90;68.80;;;;;;5093965;28;20465;-79
2023/10/21 13:23:50;;;;;;;4.13;0.90;;;17.80;68.80;;;;;;5090534;28;20905;-77
2023/10/21 13:26:19;;;;;;;4.77;0.90;;;17.80;68.70;;;;;;5092747;28;20484;-80
2023/10/21 13:28:47;;;;;;;3.50;0.70;;;17.90;68.80;;;;;;5077242;28;20466;-78
2023/10/21 13:31:16;;;;;;;5.17;0.70;;;17.90;68.70;;;;;;5093484;28;20480;-79
2023/10/21 13:33:46;;;;;;;4.90;0.80;;;17.90;68.50;;;;;;5077631;28;20831;-77
2023/10/21 13:36:14;;;;;;;4.00;0.67;;;17.90;68.50;;;;;;5094413;28;20966;-79
2023/10/21 13:38:41;;;;;;;3.70;0.60;;;17.90;68.50;;;;;;5066693;28;20940;-78